Time,TemperatureF,DewpointF,PressureIn,WindDirection,WindDirectionDegrees,WindSpeedMPH,WindSpeedGustMPH,Humidity,HourlyPrecipIn,Conditions,Clouds,dailyrainin,SoftwareType,DateUTC
2013-06-06 00:00:00,68.2,59.2,30.05,ESE,117,4.0,4.0,73,0.00,,---,0.00,VWS V14.01,2013-06-06 04:00:00,
2013-06-06 00:01:00,67.2,57.1,30.06,South,186,3.0,5.0,70,0.00,,---,0.00,VWS V14.01,2013-06-06 04:01:00,
2013-06-06 00:05:00,68.2,59.2,30.05,SSE,160,2.0,4.0,73,0.00,,---,0.00,VWS V14.01,2013-06-06 04:05:00,
2013-06-06 00:06:00,67.0,56.1,30.06,SSW,192,4.0,11.0,68,0.00,,---,0.00,VWS V14.01,2013-06-06 04:06:00,
2013-06-06 00:10:00,68.0,58.7,30.05,South,182,1.0,4.0,72,0.00,,---,0.00,VWS V14.01,2013-06-06 04:10:00,
2013-06-06 00:11:00,66.9,56.4,30.06,South,180,5.0,6.0,69,0.00,,---,0.00,VWS V14.01,2013-06-06 04:11:00,
2013-06-06 00:15:00,68.0,58.7,30.06,South,186,4.0,5.0,72,0.00,,---,0.00,VWS V14.01,2013-06-06 04:15:00,
2013-06-06 00:16:00,66.9,56.0,30.06,South,185,4.0,6.0,68,0.00,,---,0.00,VWS V14.01,2013-06-06 04:16:00,
2013-06-06 00:20:00,67.9,58.2,30.06,South,185,2.0,4.0,71,0.00,,---,0.00,VWS V14.01,2013-06-06 04:20:00,
2013-06-06 00:21:00,66.7,55.4,30.06,SSW,194,5.0,8.0,67,0.00,,---,0.00,VWS V14.01,2013-06-06 04:21:00,
2013-06-06 00:25:00,67.7,58.0,30.06,South,184,2.0,4.0,71,0.00,,---,0.00,VWS V14.01,2013-06-06 04:25:00,
2013-06-06 00:26:00,66.7,55.4,30.06,SSE,161,4.0,9.0,67,0.00,,---,0.00,VWS V14.01,2013-06-06 04:26:00,
2013-06-06 00:30:00,67.7,57.6,30.06,South,184,1.0,5.0,70,0.00,,---,0.00,VWS V14.01,2013-06-06 04:30:00,
2013-06-06 00:31:00,66.7,55.4,30.06,SSE,160,5.0,5.0,67,0.00,,---,0.00,VWS V14.01,2013-06-06 04:31:00,
2013-06-06 00:35:00,67.5,57.8,30.06,South,184,0.0,2.0,71,0.00,,---,0.00,VWS V14.01,2013-06-06 04:35:00,
2013-06-06 00:36:00,66.7,55.8,30.06,SSE,168,0.0,2.0,68,0.00,,---,0.00,VWS V14.01,2013-06-06 04:36:00,
2013-06-06 00:40:00,67.5,57.4,30.06,SSW,192,3.0,6.0,70,0.00,,---,0.00,VWS V14.01,2013-06-06 04:40:00,
2013-06-06 00:41:00,66.5,55.6,30.06,SSE,168,0.0,1.0,68,0.00,,---,0.00,VWS V14.01,2013-06-06 04:41:00,
2013-06-06 00:45:00,67.4,57.7,30.06,South,186,5.0,6.0,71,0.00,,---,0.00,VWS V14.01,2013-06-06 04:45:00,
2013-06-06 00:46:00,66.5,56.0,30.06,South,178,0.0,1.0,69,0.00,,---,0.00,VWS V14.01,2013-06-06 04:46:00,
2013-06-06 00:50:00,67.2,57.1,30.06,SSW,202,11.0,12.0,70,0.00,,---,0.00,VWS V14.01,2013-06-06 04:50:00,
2013-06-06 00:51:00,66.4,56.3,30.06,South,178,0.0,0.0,70,0.00,,---,0.00,VWS V14.01,2013-06-06 04:51:00,
2013-06-06 00:55:00,67.0,56.5,30.06,South,177,4.0,11.0,69,0.00,,---,0.00,VWS V14.01,2013-06-06 04:55:00,
2013-06-06 00:56:00,66.4,56.3,30.06,South,178,0.0,0.0,70,0.00,,---,0.00,VWS V14.01,2013-06-06 04:56:00,
2013-06-06 01:00:00,66.9,56.0,30.06,South,181,5.0,7.0,68,0.00,,---,0.00,VWS V14.01,2013-06-06 05:00:00,
2013-06-06 01:01:00,66.0,56.3,30.05,South,178,0.0,0.0,71,0.00,,---,0.00,VWS V14.01,2013-06-06 05:01:00,
2013-06-06 01:05:00,66.7,55.8,30.06,SSW,192,5.0,8.0,68,0.00,,---,0.00,VWS V14.01,2013-06-06 05:05:00,
2013-06-06 01:06:00,65.4,56.5,30.05,South,178,0.0,1.0,73,0.00,,---,0.00,VWS V14.01,2013-06-06 05:06:00,
2013-06-06 01:10:00,66.7,55.4,30.06,South,183,4.0,8.0,67,0.00,,---,0.00,VWS V14.01,2013-06-06 05:10:00,
2013-06-06 01:11:00,65.1,56.2,30.05,South,178,0.0,2.0,73,0.00,,---,0.00,VWS V14.01,2013-06-06 05:11:00,
2013-06-06 01:15:00,66.7,55.0,30.06,South,176,0.0,9.0,66,0.00,,---,0.00,VWS V14.01,2013-06-06 05:15:00,
2013-06-06 01:16:00,64.7,56.2,30.05,South,178,0.0,3.0,74,0.00,,---,0.00,VWS V14.01,2013-06-06 05:16:00,
2013-06-06 01:20:00,66.7,55.4,30.06,SSE,168,2.0,5.0,67,0.00,,---,0.00,VWS V14.01,2013-06-06 05:20:00,
2013-06-06 01:21:00,64.3,56.2,30.05,South,178,2.0,3.0,75,0.00,,---,0.00,VWS V14.01,2013-06-06 05:21:00,
2013-06-06 01:25:00,66.7,55.8,30.06,SSE,168,0.0,2.0,68,0.00,,---,0.00,VWS V14.01,2013-06-06 05:25:00,
2013-06-06 01:26:00,63.8,56.1,30.05,WNW,302,4.0,4.0,76,0.00,,---,0.00,VWS V14.01,2013-06-06 05:26:00,
2013-06-06 01:30:00,66.5,55.6,30.06,South,178,1.0,2.0,68,0.00,,---,0.00,VWS V14.01,2013-06-06 05:30:00,
2013-06-06 01:31:00,63.4,56.1,30.05,NW,306,3.0,4.0,77,0.00,,---,0.00,VWS V14.01,2013-06-06 05:31:00,
2013-06-06 01:35:00,63.0,55.7,30.05,NW,306,0.0,1.0,77,0.00,,---,0.00,VWS V14.01,2013-06-06 05:35:00,
2013-06-06 01:40:00,62.6,56.0,30.05,NW,306,1.0,2.0,79,0.00,,---,0.00,VWS V14.01,2013-06-06 05:40:00,
2013-06-06 01:45:00,62.2,56.0,30.05,NW,306,0.0,2.0,80,0.00,,---,0.00,VWS V14.01,2013-06-06 05:45:00,
2013-06-06 01:50:00,61.7,55.8,30.05,NW,306,3.0,3.0,81,0.00,,---,0.00,VWS V14.01,2013-06-06 05:50:00,
2013-06-06 01:55:00,61.2,55.7,30.05,NW,309,3.0,4.0,82,0.00,,---,0.00,VWS V14.01,2013-06-06 05:55:00,
2013-06-06 02:00:00,60.9,55.4,30.05,NW,311,4.0,4.0,82,0.00,,---,0.00,VWS V14.01,2013-06-06 06:00:00,
2013-06-06 02:05:00,60.6,55.1,30.05,NW,317,3.0,4.0,82,0.00,,---,0.00,VWS V14.01,2013-06-06 06:05:00,
2013-06-06 02:10:00,60.3,54.8,30.05,NW,316,3.0,5.0,82,0.00,,---,0.00,VWS V14.01,2013-06-06 06:10:00,
2013-06-06 02:15:00,60.1,54.9,30.05,NW,319,4.0,5.0,83,0.00,,---,0.00,VWS V14.01,2013-06-06 06:15:00,
2013-06-06 02:20:00,60.0,54.8,30.05,NW,315,3.0,4.0,83,0.00,,---,0.00,VWS V14.01,2013-06-06 06:20:00,
2013-06-06 02:25:00,60.0,54.8,30.05,NW,315,3.0,4.0,83,0.00,,---,0.00,VWS V14.01,2013-06-06 06:25:00,
2013-06-06 02:30:00,59.8,54.6,30.04,NW,315,3.0,4.0,83,0.00,,---,0.00,VWS V14.01,2013-06-06 06:30:00,
2013-06-06 02:35:00,59.6,54.4,30.04,NW,315,2.0,4.0,83,0.00,,---,0.00,VWS V14.01,2013-06-06 06:35:00,
2013-06-06 02:40:00,59.5,54.3,30.04,NW,315,2.0,4.0,83,0.00,,---,0.00,VWS V14.01,2013-06-06 06:40:00,
2013-06-06 02:45:00,59.3,54.5,30.04,NW,317,3.0,4.0,84,0.00,,---,0.00,VWS V14.01,2013-06-06 06:45:00,
2013-06-06 02:50:00,59.2,54.4,30.04,NW,317,4.0,4.0,84,0.00,,---,0.00,VWS V14.01,2013-06-06 06:50:00,
2013-06-06 02:55:00,59.0,54.5,30.04,NW,317,2.0,4.0,85,0.00,,---,0.00,VWS V14.01,2013-06-06 06:55:00,
2013-06-06 03:00:00,59.0,54.5,30.04,NW,317,0.0,3.0,85,0.00,,---,0.00,VWS V14.01,2013-06-06 07:00:00,
2013-06-06 03:05:00,58.9,54.7,30.04,NW,317,1.0,2.0,86,0.00,,---,0.00,VWS V14.01,2013-06-06 07:05:00,
2013-06-06 03:10:00,58.9,54.7,30.04,NW,318,1.0,2.0,86,0.00,,---,0.00,VWS V14.01,2013-06-06 07:10:00,
2013-06-06 03:15:00,58.9,54.7,30.04,NW,318,0.0,0.0,86,0.00,,---,0.00,VWS V14.01,2013-06-06 07:15:00,
2013-06-06 03:20:00,58.9,54.7,30.04,NW,318,1.0,1.0,86,0.00,,---,0.00,VWS V14.01,2013-06-06 07:20:00,
2013-06-06 03:25:00,58.9,54.7,30.04,NW,318,3.0,3.0,86,0.00,,---,0.00,VWS V14.01,2013-06-06 07:25:00,
2013-06-06 03:30:00,59.0,54.8,30.03,NW,318,3.0,3.0,86,0.00,,---,0.00,VWS V14.01,2013-06-06 07:30:00,
2013-06-06 03:35:00,59.0,54.8,30.03,NW,318,0.0,3.0,86,0.00,,---,0.00,VWS V14.01,2013-06-06 07:35:00,
2013-06-06 03:40:00,59.0,54.8,30.03,NW,318,3.0,3.0,86,0.00,,---,0.00,VWS V14.01,2013-06-06 07:40:00,
2013-06-06 03:45:00,59.0,54.5,30.03,NW,318,2.0,3.0,85,0.00,,---,0.00,VWS V14.01,2013-06-06 07:45:00,
2013-06-06 03:50:00,58.9,54.4,30.03,NW,318,3.0,4.0,85,0.00,,---,0.00,VWS V14.01,2013-06-06 07:50:00,
2013-06-06 03:55:00,58.9,54.1,30.03,NW,317,3.0,5.0,84,0.00,,---,0.00,VWS V14.01,2013-06-06 07:55:00,
2013-06-06 04:00:00,58.9,54.1,30.03,NW,317,3.0,4.0,84,0.00,,---,0.00,VWS V14.01,2013-06-06 08:00:00,
2013-06-06 04:05:00,58.9,54.1,30.03,NW,317,3.0,3.0,84,0.00,,---,0.00,VWS V14.01,2013-06-06 08:05:00,
2013-06-06 04:10:00,58.7,53.6,30.03,NW,314,2.0,5.0,83,0.00,,---,0.00,VWS V14.01,2013-06-06 08:10:00,
2013-06-06 04:15:00,58.7,53.6,30.03,NW,314,0.0,2.0,83,0.00,,---,0.00,VWS V14.01,2013-06-06 08:15:00,
2013-06-06 04:20:00,58.7,53.6,30.03,NW,314,2.0,3.0,83,0.00,,---,0.00,VWS V14.01,2013-06-06 08:20:00,
2013-06-06 04:25:00,58.6,53.1,30.03,NW,312,3.0,5.0,82,0.00,,---,0.00,VWS V14.01,2013-06-06 08:25:00,
2013-06-06 04:30:00,58.6,53.1,30.02,NW,312,1.0,2.0,82,0.00,,---,0.00,VWS V14.01,2013-06-06 08:30:00,
2013-06-06 04:35:00,58.6,53.5,30.02,NW,312,2.0,3.0,83,0.00,,---,0.00,VWS V14.01,2013-06-06 08:35:00,
2013-06-06 04:40:00,58.6,53.8,30.02,NW,312,2.0,3.0,84,0.00,,---,0.00,VWS V14.01,2013-06-06 08:40:00,
2013-06-06 04:45:00,58.4,53.6,30.02,NW,313,1.0,3.0,84,0.00,,---,0.00,VWS V14.01,2013-06-06 08:45:00,
2013-06-06 04:50:00,58.4,53.6,30.02,NW,313,2.0,2.0,84,0.00,,---,0.00,VWS V14.01,2013-06-06 08:50:00,
2013-06-06 04:55:00,58.4,53.9,30.02,NW,313,1.0,2.0,85,0.00,,---,0.00,VWS V14.01,2013-06-06 08:55:00,
2013-06-06 05:00:00,58.3,53.8,30.02,NW,317,0.0,2.0,85,0.00,,---,0.00,VWS V14.01,2013-06-06 09:00:00,
2013-06-06 05:05:00,58.3,53.8,30.02,NW,317,2.0,3.0,85,0.00,,---,0.00,VWS V14.01,2013-06-06 09:05:00,
2013-06-06 05:10:00,58.3,54.1,30.02,NW,317,0.0,2.0,86,0.00,,---,0.00,VWS V14.01,2013-06-06 09:10:00,
2013-06-06 05:15:00,58.1,53.9,30.02,NW,317,2.0,3.0,86,0.00,,---,0.00,VWS V14.01,2013-06-06 09:15:00,
2013-06-06 05:20:00,58.1,53.9,30.02,NW,317,2.0,3.0,86,0.00,,---,0.00,VWS V14.01,2013-06-06 09:20:00,
2013-06-06 05:25:00,58.1,53.9,30.02,NW,317,1.0,3.0,86,0.00,,---,0.00,VWS V14.01,2013-06-06 09:25:00,
2013-06-06 05:30:00,58.1,53.9,30.02,North,360,3.0,4.0,86,0.00,,---,0.00,VWS V14.01,2013-06-06 09:30:00,
2013-06-06 05:35:00,58.1,53.6,30.02,North,351,1.0,3.0,85,0.00,,---,0.00,VWS V14.01,2013-06-06 09:35:00,
2013-06-06 05:40:00,58.3,53.8,30.02,North,351,0.0,2.0,85,0.00,,---,0.00,VWS V14.01,2013-06-06 09:40:00,
2013-06-06 05:45:00,58.3,53.8,30.02,North,351,0.0,1.0,85,0.00,,---,0.00,VWS V14.01,2013-06-06 09:45:00,
2013-06-06 05:50:00,58.3,53.8,30.02,NW,317,1.0,2.0,85,0.00,,---,0.00,VWS V14.01,2013-06-06 09:50:00,
2013-06-06 05:55:00,58.3,53.8,30.02,WNW,303,0.0,1.0,85,0.00,,---,0.00,VWS V14.01,2013-06-06 09:55:00,
2013-06-06 06:00:00,58.3,53.8,30.02,NW,309,0.0,1.0,85,0.00,,---,0.00,VWS V14.01,2013-06-06 10:00:00,
2013-06-06 06:05:00,58.3,53.8,30.02,NW,309,0.0,1.0,85,0.00,,---,0.00,VWS V14.01,2013-06-06 10:05:00,
2013-06-06 06:10:00,58.1,53.9,30.02,North,355,1.0,2.0,86,0.00,,---,0.00,VWS V14.01,2013-06-06 10:10:00,
2013-06-06 06:15:00,58.0,53.8,30.03,West,263,0.0,2.0,86,0.00,,---,0.00,VWS V14.01,2013-06-06 10:15:00,
2013-06-06 06:20:00,58.0,54.2,30.03,NNE,15,2.0,2.0,87,0.00,,---,0.00,VWS V14.01,2013-06-06 10:20:00,
2013-06-06 06:25:00,58.0,54.2,30.03,NNW,346,0.0,1.0,87,0.00,,---,0.00,VWS V14.01,2013-06-06 10:25:00,
2013-06-06 06:30:00,58.0,54.2,30.03,ENE,72,0.0,1.0,87,0.00,,---,0.00,VWS V14.01,2013-06-06 10:30:00,
2013-06-06 06:35:00,58.0,54.2,30.03,North,360,0.0,1.0,87,0.00,,---,0.00,VWS V14.01,2013-06-06 10:35:00,
2013-06-06 06:40:00,58.1,54.3,30.03,South,190,0.0,1.0,87,0.00,,---,0.00,VWS V14.01,2013-06-06 10:40:00,
2013-06-06 06:45:00,58.3,55.1,30.03,East,92,1.0,1.0,89,0.00,,---,0.00,VWS V14.01,2013-06-06 10:45:00,
2013-06-06 06:50:00,58.3,54.8,30.03,NNW,342,0.0,1.0,88,0.00,,---,0.00,VWS V14.01,2013-06-06 10:50:00,
2013-06-06 06:55:00,58.3,55.1,30.03,NW,317,0.0,1.0,89,0.00,,---,0.00,VWS V14.01,2013-06-06 10:55:00,
2013-06-06 07:00:00,58.4,55.2,30.03,NW,317,0.0,0.0,89,0.00,,---,0.00,VWS V14.01,2013-06-06 11:00:00,
2013-06-06 07:05:00,58.4,54.9,30.03,NNE,28,0.0,2.0,88,0.00,,---,0.00,VWS V14.01,2013-06-06 11:05:00,
2013-06-06 07:10:00,58.6,55.1,30.03,NNE,28,0.0,1.0,88,0.00,,---,0.00,VWS V14.01,2013-06-06 11:10:00,
2013-06-06 07:15:00,58.7,55.2,30.03,NE,43,1.0,2.0,88,0.00,,---,0.00,VWS V14.01,2013-06-06 11:15:00,
2013-06-06 07:20:00,58.7,54.5,30.03,ENE,63,1.0,1.0,86,0.00,,---,0.00,VWS V14.01,2013-06-06 11:20:00,
2013-06-06 07:25:00,58.7,53.9,30.03,East,92,1.0,2.0,84,0.00,,---,0.00,VWS V14.01,2013-06-06 11:25:00,
2013-06-06 07:30:00,59.0,53.8,30.03,SE,138,1.0,1.0,83,0.00,,---,0.00,VWS V14.01,2013-06-06 11:30:00,
2013-06-06 07:35:00,59.2,54.0,30.03,ESE,122,1.0,2.0,83,0.00,,---,0.00,VWS V14.01,2013-06-06 11:35:00,
2013-06-06 07:40:00,59.3,54.2,30.03,ENE,76,1.0,1.0,83,0.00,,---,0.00,VWS V14.01,2013-06-06 11:40:00,
2013-06-06 07:45:00,59.5,54.7,30.03,North,355,0.0,1.0,84,0.00,,---,0.00,VWS V14.01,2013-06-06 11:45:00,
2013-06-06 07:50:00,59.6,55.1,30.03,NW,314,0.0,1.0,85,0.00,,---,0.00,VWS V14.01,2013-06-06 11:50:00,
2013-06-06 07:55:00,59.8,55.6,30.03,SE,132,0.0,1.0,86,0.00,,---,0.00,VWS V14.01,2013-06-06 11:55:00,
2013-06-06 08:00:00,59.8,55.6,30.02,SE,135,0.0,1.0,86,0.01,,---,0.01,VWS V14.01,2013-06-06 12:00:00,
2013-06-06 08:05:00,59.8,55.9,30.02,North,5,0.0,0.0,87,0.01,,---,0.01,VWS V14.01,2013-06-06 12:05:00,
2013-06-06 08:10:00,59.8,56.2,30.02,North,5,0.0,1.0,88,0.02,,---,0.02,VWS V14.01,2013-06-06 12:10:00,
2013-06-06 08:15:00,59.8,56.6,30.02,NNW,348,2.0,2.0,89,0.03,,---,0.03,VWS V14.01,2013-06-06 12:15:00,
2013-06-06 08:20:00,59.5,56.3,30.02,North,360,2.0,4.0,89,0.04,,---,0.04,VWS V14.01,2013-06-06 12:20:00,
2013-06-06 08:25:00,59.3,56.4,30.02,North,5,0.0,3.0,90,0.05,,---,0.05,VWS V14.01,2013-06-06 12:25:00,
2013-06-06 08:29:00,58.9,56.0,30.02,North,360,0.0,3.0,90,0.05,,---,0.05,VWS V14.01,2013-06-06 12:29:00,
2013-06-06 08:30:00,59.5,54.7,30.03,NNE,24,0.0,1.0,84,0.00,,---,0.00,VWS V14.01,2013-06-06 12:30:00,
2013-06-06 08:34:00,58.9,56.3,30.02,North,5,1.0,3.0,91,0.06,,---,0.06,VWS V14.01,2013-06-06 12:34:00,
2013-06-06 08:35:00,59.6,55.1,30.03,NW,312,0.0,1.0,85,0.00,,---,0.00,VWS V14.01,2013-06-06 12:35:00,
2013-06-06 08:39:00,58.6,56.0,30.02,NNW,348,0.0,2.0,91,0.06,,---,0.06,VWS V14.01,2013-06-06 12:39:00,
2013-06-06 08:40:00,59.6,55.1,30.03,NE,44,0.0,1.0,85,0.00,,---,0.00,VWS V14.01,2013-06-06 12:40:00,
2013-06-06 08:44:00,58.6,56.3,30.02,North,360,2.0,4.0,92,0.07,,---,0.07,VWS V14.01,2013-06-06 12:44:00,
2013-06-06 08:45:00,59.8,55.9,30.02,SE,132,0.0,1.0,87,0.00,,---,0.00,VWS V14.01,2013-06-06 12:45:00,
2013-06-06 08:49:00,58.6,56.3,30.02,NNE,16,3.0,4.0,92,0.08,,---,0.08,VWS V14.01,2013-06-06 12:49:00,
2013-06-06 08:50:00,59.8,55.9,30.02,NNE,26,0.0,1.0,87,0.01,,---,0.01,VWS V14.01,2013-06-06 12:50:00,
2013-06-06 08:54:00,58.3,56.0,30.02,North,355,2.0,4.0,92,0.08,,---,0.08,VWS V14.01,2013-06-06 12:54:00,
2013-06-06 08:55:00,59.8,56.2,30.02,North,5,0.0,1.0,88,0.02,,---,0.02,VWS V14.01,2013-06-06 12:55:00,
2013-06-06 08:59:00,58.3,56.3,30.02,NNE,13,3.0,3.0,93,0.09,,---,0.09,VWS V14.01,2013-06-06 12:59:00,
2013-06-06 09:00:00,59.8,56.2,30.02,NNW,348,1.0,1.0,88,0.02,,---,0.02,VWS V14.01,2013-06-06 13:00:00,
2013-06-06 09:04:00,58.3,56.3,30.02,NNE,21,1.0,3.0,93,0.08,,---,0.09,VWS V14.01,2013-06-06 13:04:00,
2013-06-06 09:05:00,59.6,56.4,30.02,North,360,4.0,4.0,89,0.04,,---,0.04,VWS V14.01,2013-06-06 13:05:00,
2013-06-06 09:09:00,58.3,56.3,30.02,NNE,21,0.0,4.0,93,0.08,,---,0.10,VWS V14.01,2013-06-06 13:09:00,
2013-06-06 09:10:00,59.3,56.4,30.02,North,360,1.0,4.0,90,0.04,,---,0.04,VWS V14.01,2013-06-06 13:10:00,
2013-06-06 09:14:00,58.3,56.6,30.01,NNE,21,0.0,1.0,94,0.08,,---,0.10,VWS V14.01,2013-06-06 13:14:00,
2013-06-06 09:15:00,59.2,56.3,30.02,NNE,16,3.0,4.0,90,0.05,,---,0.05,VWS V14.01,2013-06-06 13:15:00,
2013-06-06 09:19:00,58.3,56.6,30.01,NNW,341,1.0,3.0,94,0.06,,---,0.10,VWS V14.01,2013-06-06 13:19:00,
2013-06-06 09:20:00,58.9,56.3,30.02,North,355,2.0,3.0,91,0.06,,---,0.06,VWS V14.01,2013-06-06 13:20:00,
2013-06-06 09:24:00,58.4,56.7,30.01,North,355,2.0,3.0,94,0.06,,---,0.10,VWS V14.01,2013-06-06 13:24:00,
2013-06-06 09:25:00,58.7,56.1,30.02,North,351,0.0,3.0,91,0.06,,---,0.06,VWS V14.01,2013-06-06 13:25:00,
2013-06-06 09:29:00,58.6,57.2,30.01,ENE,65,0.0,0.0,95,0.05,,---,0.10,VWS V14.01,2013-06-06 13:29:00,
2013-06-06 09:30:00,58.6,56.3,30.02,NNW,332,0.0,2.0,92,0.06,,---,0.06,VWS V14.01,2013-06-06 13:30:00,
2013-06-06 09:34:00,58.9,57.5,30.01,NNE,28,0.0,1.0,95,0.04,,---,0.10,VWS V14.01,2013-06-06 13:34:00,
2013-06-06 09:35:00,58.6,56.3,30.02,NNE,19,4.0,4.0,92,0.07,,---,0.07,VWS V14.01,2013-06-06 13:35:00,
2013-06-06 09:39:00,58.9,57.2,30.01,ENE,62,1.0,1.0,94,0.04,,---,0.10,VWS V14.01,2013-06-06 13:39:00,
2013-06-06 09:40:00,58.4,56.1,30.02,NNE,15,3.0,5.0,92,0.08,,---,0.08,VWS V14.01,2013-06-06 13:40:00,
2013-06-06 09:44:00,58.9,57.5,30.01,ENE,62,1.0,1.0,95,0.05,,---,0.11,VWS V14.01,2013-06-06 13:44:00,
2013-06-06 09:45:00,58.3,56.0,30.02,NNE,26,2.0,4.0,92,0.08,,---,0.08,VWS V14.01,2013-06-06 13:45:00,
2013-06-06 09:49:00,59.0,57.6,30.01,ENE,62,0.0,1.0,95,0.05,,---,0.12,VWS V14.01,2013-06-06 13:49:00,
2013-06-06 09:50:00,58.3,56.3,30.02,NE,34,3.0,4.0,93,0.09,,---,0.09,VWS V14.01,2013-06-06 13:50:00,
2013-06-06 09:54:00,59.0,57.6,30.01,ENE,62,0.0,0.0,95,0.04,,---,0.12,VWS V14.01,2013-06-06 13:54:00,
2013-06-06 09:55:00,58.3,56.3,30.02,NNE,21,4.0,4.0,93,0.09,,---,0.10,VWS V14.01,2013-06-06 13:55:00,
2013-06-06 09:59:00,59.0,57.6,30.01,NE,40,0.0,0.0,95,0.04,,---,0.12,VWS V14.01,2013-06-06 13:59:00,
2013-06-06 10:00:00,58.3,56.3,30.01,NNE,21,0.0,4.0,93,0.08,,---,0.10,VWS V14.01,2013-06-06 14:00:00,
2013-06-06 10:04:00,59.2,57.8,30.01,NNE,13,0.0,3.0,95,0.03,,---,0.12,VWS V14.01,2013-06-06 14:04:00,
2013-06-06 10:05:00,58.3,56.6,30.01,North,9,3.0,4.0,94,0.08,,---,0.10,VWS V14.01,2013-06-06 14:05:00,
2013-06-06 10:09:00,59.0,57.6,30.01,NW,319,0.0,1.0,95,0.02,,---,0.12,VWS V14.01,2013-06-06 14:09:00,
2013-06-06 10:10:00,58.4,56.7,30.01,North,350,0.0,3.0,94,0.06,,---,0.10,VWS V14.01,2013-06-06 14:10:00,
2013-06-06 10:14:00,59.2,57.8,30.00,NE,36,0.0,1.0,95,0.02,,---,0.12,VWS V14.01,2013-06-06 14:14:00,
2013-06-06 10:15:00,58.6,56.9,30.01,ENE,65,0.0,3.0,94,0.06,,---,0.10,VWS V14.01,2013-06-06 14:15:00,
2013-06-06 10:19:00,59.2,57.8,30.00,NNW,338,0.0,4.0,95,0.03,,---,0.13,VWS V14.01,2013-06-06 14:19:00,
2013-06-06 10:20:00,58.7,57.3,30.01,NE,37,0.0,0.0,95,0.05,,---,0.10,VWS V14.01,2013-06-06 14:20:00,
2013-06-06 10:24:00,59.2,57.8,30.00,North,9,2.0,2.0,95,0.03,,---,0.13,VWS V14.01,2013-06-06 14:24:00,
2013-06-06 10:25:00,58.9,57.2,30.01,NNE,17,0.0,1.0,94,0.04,,---,0.10,VWS V14.01,2013-06-06 14:25:00,
2013-06-06 10:29:00,59.2,57.8,30.00,NNE,19,3.0,3.0,95,0.04,,---,0.14,VWS V14.01,2013-06-06 14:29:00,
2013-06-06 10:30:00,58.9,57.2,30.01,ENE,62,0.0,1.0,94,0.04,,---,0.10,VWS V14.01,2013-06-06 14:30:00,
2013-06-06 10:34:00,59.2,57.8,30.00,NNE,30,0.0,3.0,95,0.04,,---,0.14,VWS V14.01,2013-06-06 14:34:00,
2013-06-06 10:35:00,58.9,57.5,30.01,ENE,62,0.0,2.0,95,0.05,,---,0.11,VWS V14.01,2013-06-06 14:35:00,
2013-06-06 10:39:00,59.2,58.1,30.00,NNE,30,2.0,2.0,96,0.04,,---,0.14,VWS V14.01,2013-06-06 14:39:00,
2013-06-06 10:40:00,59.0,57.6,30.01,ENE,62,0.0,1.0,95,0.05,,---,0.12,VWS V14.01,2013-06-06 14:40:00,
2013-06-06 10:44:00,59.2,58.1,30.00,North,9,0.0,4.0,96,0.04,,---,0.14,VWS V14.01,2013-06-06 14:44:00,
2013-06-06 10:45:00,59.0,57.6,30.01,ENE,59,0.0,0.0,95,0.04,,---,0.12,VWS V14.01,2013-06-06 14:45:00,
2013-06-06 10:49:00,59.3,58.2,30.00,NNW,344,0.0,4.0,96,0.03,,---,0.14,VWS V14.01,2013-06-06 14:49:00,
2013-06-06 10:50:00,59.2,57.8,30.01,NNE,18,2.0,2.0,95,0.04,,---,0.12,VWS V14.01,2013-06-06 14:50:00,
2013-06-06 10:54:00,59.3,58.2,30.00,NNE,26,0.0,3.0,96,0.02,,---,0.14,VWS V14.01,2013-06-06 14:54:00,
2013-06-06 10:55:00,59.0,57.6,30.01,NNE,17,0.0,3.0,95,0.03,,---,0.12,VWS V14.01,2013-06-06 14:55:00,
2013-06-06 10:59:00,59.3,58.2,30.00,ENE,74,2.0,3.0,96,0.02,,---,0.14,VWS V14.01,2013-06-06 14:59:00,
2013-06-06 11:00:00,59.0,57.6,30.00,North,355,0.0,1.0,95,0.02,,---,0.12,VWS V14.01,2013-06-06 15:00:00,
2013-06-06 11:04:00,59.5,58.4,30.00,NW,326,0.0,0.0,96,0.02,,---,0.14,VWS V14.01,2013-06-06 15:04:00,
2013-06-06 11:05:00,59.3,57.9,30.00,NNE,24,4.0,4.0,95,0.03,,---,0.13,VWS V14.01,2013-06-06 15:05:00,
2013-06-06 11:09:00,59.5,58.4,30.00,NE,55,1.0,3.0,96,0.02,,---,0.14,VWS V14.01,2013-06-06 15:09:00,
2013-06-06 11:10:00,59.2,57.8,30.00,North,351,0.0,4.0,95,0.03,,---,0.13,VWS V14.01,2013-06-06 15:10:00,
2013-06-06 11:14:00,59.5,58.7,30.00,NE,55,0.0,2.0,97,0.02,,---,0.14,VWS V14.01,2013-06-06 15:14:00,
2013-06-06 11:15:00,59.2,57.8,30.00,North,9,0.0,2.0,95,0.03,,---,0.13,VWS V14.01,2013-06-06 15:15:00,
2013-06-06 11:19:00,59.6,58.8,30.00,NNE,32,0.0,2.0,97,0.02,,---,0.15,VWS V14.01,2013-06-06 15:19:00,
2013-06-06 11:20:00,59.2,58.1,30.00,NNE,30,0.0,3.0,96,0.04,,---,0.14,VWS V14.01,2013-06-06 15:20:00,
2013-06-06 11:24:00,59.6,58.8,30.00,NNE,13,0.0,3.0,97,0.02,,---,0.15,VWS V14.01,2013-06-06 15:24:00,
2013-06-06 11:25:00,59.2,57.8,30.00,NNE,30,0.0,3.0,95,0.04,,---,0.14,VWS V14.01,2013-06-06 15:25:00,
2013-06-06 11:29:00,59.8,59.0,29.99,NNE,13,2.0,5.0,97,0.02,,---,0.15,VWS V14.01,2013-06-06 15:29:00,
2013-06-06 11:30:00,59.2,58.1,30.00,NNE,30,3.0,4.0,96,0.04,,---,0.14,VWS V14.01,2013-06-06 15:30:00,
2013-06-06 11:34:00,59.8,59.0,29.99,North,355,7.0,8.0,97,0.01,,---,0.15,VWS V14.01,2013-06-06 15:34:00,
2013-06-06 11:35:00,59.2,58.1,30.00,NNW,330,3.0,4.0,96,0.04,,---,0.14,VWS V14.01,2013-06-06 15:35:00,
2013-06-06 11:39:00,59.8,59.0,29.99,NNE,29,1.0,4.0,97,0.01,,---,0.15,VWS V14.01,2013-06-06 15:39:00,
2013-06-06 11:40:00,59.3,58.2,30.00,North,10,0.0,4.0,96,0.03,,---,0.14,VWS V14.01,2013-06-06 15:40:00,
2013-06-06 11:44:00,60.0,59.2,29.99,East,80,1.0,4.0,97,0.01,,---,0.15,VWS V14.01,2013-06-06 15:44:00,
2013-06-06 11:45:00,59.3,58.2,30.00,East,92,1.0,3.0,96,0.02,,---,0.14,VWS V14.01,2013-06-06 15:45:00,
2013-06-06 11:49:00,59.8,59.0,29.99,NNE,17,4.0,5.0,97,0.01,,---,0.15,VWS V14.01,2013-06-06 15:49:00,
2013-06-06 11:50:00,59.5,58.7,30.00,NNW,334,0.0,3.0,97,0.02,,---,0.14,VWS V14.01,2013-06-06 15:50:00,
2013-06-06 11:54:00,59.8,59.0,29.99,NW,323,0.0,4.0,97,0.01,,---,0.15,VWS V14.01,2013-06-06 15:54:00,
2013-06-06 11:55:00,59.5,58.7,30.00,NE,55,3.0,3.0,97,0.02,,---,0.14,VWS V14.01,2013-06-06 15:55:00,
2013-06-06 11:59:00,60.0,59.2,29.99,NNW,340,2.0,2.0,97,0.01,,---,0.15,VWS V14.01,2013-06-06 15:59:00,
2013-06-06 12:00:00,59.5,58.7,30.00,NE,55,0.0,3.0,97,0.02,,---,0.14,VWS V14.01,2013-06-06 16:00:00,
2013-06-06 12:04:00,60.3,59.5,29.99,North,11,1.0,3.0,97,0.01,,---,0.15,VWS V14.01,2013-06-06 16:04:00,
2013-06-06 12:05:00,59.6,58.8,30.00,NNE,32,2.0,4.0,97,0.03,,---,0.15,VWS V14.01,2013-06-06 16:05:00,
2013-06-06 12:09:00,60.4,59.5,29.99,NE,38,1.0,3.0,97,0.01,,---,0.15,VWS V14.01,2013-06-06 16:09:00,
2013-06-06 12:10:00,59.6,58.8,30.00,NNE,13,0.0,2.0,97,0.02,,---,0.15,VWS V14.01,2013-06-06 16:10:00,
2013-06-06 12:14:00,60.4,59.8,29.98,NNE,28,0.0,1.0,98,0.01,,---,0.15,VWS V14.01,2013-06-06 16:14:00,
2013-06-06 12:15:00,59.8,59.0,29.99,NNE,13,2.0,3.0,97,0.02,,---,0.15,VWS V14.01,2013-06-06 16:15:00,
2013-06-06 12:19:00,60.6,60.0,29.98,NNE,13,1.0,2.0,98,0.01,,---,0.16,VWS V14.01,2013-06-06 16:19:00,
2013-06-06 12:20:00,59.8,59.0,29.99,North,9,4.0,7.0,97,0.02,,---,0.15,VWS V14.01,2013-06-06 16:20:00,
2013-06-06 12:24:00,60.6,60.0,29.98,NNE,26,2.0,2.0,98,0.01,,---,0.16,VWS V14.01,2013-06-06 16:24:00,
2013-06-06 12:25:00,59.8,59.0,29.99,NNE,15,3.0,8.0,97,0.01,,---,0.15,VWS V14.01,2013-06-06 16:25:00,
2013-06-06 12:29:00,60.9,60.3,29.98,NNE,19,4.0,5.0,98,0.01,,---,0.16,VWS V14.01,2013-06-06 16:29:00,
2013-06-06 12:30:00,59.8,59.0,29.99,ENE,77,3.0,4.0,97,0.01,,---,0.15,VWS V14.01,2013-06-06 16:30:00,
2013-06-06 12:34:00,60.9,60.3,29.98,NNE,13,4.0,5.0,98,0.02,,---,0.17,VWS V14.01,2013-06-06 16:34:00,
2013-06-06 12:35:00,60.0,59.2,29.99,East,80,0.0,4.0,97,0.01,,---,0.15,VWS V14.01,2013-06-06 16:35:00,
2013-06-06 12:39:00,60.9,60.3,29.98,NNE,13,5.0,5.0,98,0.03,,---,0.18,VWS V14.01,2013-06-06 16:39:00,
2013-06-06 12:40:00,59.8,59.0,29.99,NNE,27,3.0,7.0,97,0.01,,---,0.15,VWS V14.01,2013-06-06 16:40:00,
2013-06-06 12:44:00,60.9,60.3,29.97,NNE,24,0.0,4.0,98,0.04,,---,0.19,VWS V14.01,2013-06-06 16:44:00,
2013-06-06 12:45:00,60.0,59.2,29.99,NNW,340,0.0,4.0,97,0.01,,---,0.15,VWS V14.01,2013-06-06 16:45:00,
2013-06-06 12:49:00,60.9,60.3,29.97,NNW,340,1.0,4.0,98,0.05,,---,0.20,VWS V14.01,2013-06-06 16:49:00,
2013-06-06 12:50:00,60.1,59.2,29.99,NNW,345,1.0,3.0,97,0.01,,---,0.15,VWS V14.01,2013-06-06 16:50:00,
2013-06-06 12:54:00,61.1,60.5,29.97,NE,38,3.0,3.0,98,0.07,,---,0.22,VWS V14.01,2013-06-06 16:54:00,
2013-06-06 12:55:00,60.3,59.7,29.99,NE,38,1.0,3.0,98,0.01,,---,0.15,VWS V14.01,2013-06-06 16:55:00,
2013-06-06 12:59:00,60.9,60.3,29.97,NNE,20,3.0,3.0,98,0.09,,---,0.24,VWS V14.01,2013-06-06 16:59:00,
2013-06-06 13:00:00,60.4,59.5,29.98,NE,36,1.0,4.0,97,0.01,,---,0.15,VWS V14.01,2013-06-06 17:00:00,
2013-06-06 13:04:00,60.9,60.3,29.97,NNW,344,6.0,7.0,98,0.12,,---,0.27,VWS V14.01,2013-06-06 17:04:00,
2013-06-06 13:05:00,60.6,60.0,29.98,NNE,33,0.0,2.0,98,0.01,,---,0.15,VWS V14.01,2013-06-06 17:05:00,
2013-06-06 13:09:00,60.9,60.3,29.97,NNW,347,2.0,7.0,98,0.13,,---,0.28,VWS V14.01,2013-06-06 17:09:00,
2013-06-06 13:10:00,60.6,60.0,29.98,North,11,0.0,2.0,98,0.01,,---,0.16,VWS V14.01,2013-06-06 17:10:00,
2013-06-06 13:14:00,61.1,60.5,29.97,SSE,163,3.0,4.0,98,0.15,,---,0.30,VWS V14.01,2013-06-06 17:14:00,
2013-06-06 13:15:00,60.7,60.1,29.98,NNE,26,3.0,4.0,98,0.01,,---,0.16,VWS V14.01,2013-06-06 17:15:00,
2013-06-06 13:19:00,61.1,60.5,29.97,East,101,3.0,4.0,98,0.17,,---,0.32,VWS V14.01,2013-06-06 17:19:00,
2013-06-06 13:20:00,60.9,60.3,29.98,NNE,13,4.0,6.0,98,0.01,,---,0.16,VWS V14.01,2013-06-06 17:20:00,
2013-06-06 13:24:00,61.2,60.6,29.97,North,5,5.0,10.0,98,0.18,,---,0.34,VWS V14.01,2013-06-06 17:24:00,
2013-06-06 13:25:00,60.9,60.3,29.98,NNE,21,1.0,6.0,98,0.02,,---,0.17,VWS V14.01,2013-06-06 17:25:00,
2013-06-06 13:29:00,61.2,60.6,29.96,North,11,4.0,8.0,98,0.20,,---,0.36,VWS V14.01,2013-06-06 17:29:00,
2013-06-06 13:30:00,60.9,60.3,29.97,NNE,15,4.0,6.0,98,0.04,,---,0.19,VWS V14.01,2013-06-06 17:30:00,
2013-06-06 13:34:00,61.2,60.6,29.96,North,9,1.0,3.0,98,0.21,,---,0.37,VWS V14.01,2013-06-06 17:34:00,
2013-06-06 13:35:00,60.9,60.3,29.97,NNE,20,2.0,4.0,98,0.05,,---,0.20,VWS V14.01,2013-06-06 17:35:00,
2013-06-06 13:39:00,61.2,60.6,29.96,North,9,0.0,0.0,98,0.22,,---,0.39,VWS V14.01,2013-06-06 17:39:00,
2013-06-06 13:40:00,61.1,60.5,29.97,ENE,76,1.0,4.0,98,0.06,,---,0.21,VWS V14.01,2013-06-06 17:40:00,
2013-06-06 13:44:00,61.4,60.8,29.96,NNE,19,2.0,4.0,98,0.22,,---,0.41,VWS V14.01,2013-06-06 17:44:00,
2013-06-06 13:45:00,60.9,60.3,29.97,NNE,18,3.0,5.0,98,0.08,,---,0.23,VWS V14.01,2013-06-06 17:45:00,
2013-06-06 13:49:00,61.4,61.1,29.96,NW,318,0.0,1.0,99,0.21,,---,0.41,VWS V14.01,2013-06-06 17:49:00,
2013-06-06 13:50:00,60.9,60.3,29.97,North,355,3.0,7.0,98,0.12,,---,0.27,VWS V14.01,2013-06-06 17:50:00,
2013-06-06 13:54:00,61.5,61.2,29.96,NW,304,6.0,6.0,99,0.20,,---,0.41,VWS V14.01,2013-06-06 17:54:00,
2013-06-06 13:55:00,60.9,60.3,29.97,NW,326,7.0,7.0,98,0.13,,---,0.28,VWS V14.01,2013-06-06 17:55:00,
2013-06-06 13:59:00,61.5,61.2,29.94,SSE,163,3.0,3.0,99,0.18,,---,0.41,VWS V14.01,2013-06-06 17:59:00,
2013-06-06 14:00:00,60.9,60.3,29.97,North,349,0.0,7.0,98,0.14,,---,0.29,VWS V14.01,2013-06-06 18:00:00,
2013-06-06 14:04:00,61.8,61.5,29.94,SSE,163,0.0,1.0,99,0.14,,---,0.41,VWS V14.01,2013-06-06 18:04:00,
2013-06-06 14:05:00,61.1,60.5,29.97,SE,138,1.0,4.0,98,0.16,,---,0.31,VWS V14.01,2013-06-06 18:05:00,
2013-06-06 14:09:00,62.0,61.7,29.94,NE,53,1.0,2.0,99,0.13,,---,0.41,VWS V14.01,2013-06-06 18:09:00,
2013-06-06 14:10:00,61.2,60.6,29.97,NNE,24,7.0,7.0,98,0.18,,---,0.33,VWS V14.01,2013-06-06 18:10:00,
2013-06-06 14:14:00,62.3,62.0,29.94,NNE,14,0.0,3.0,99,0.12,,---,0.41,VWS V14.01,2013-06-06 18:14:00,
2013-06-06 14:15:00,61.2,60.6,29.96,North,355,4.0,10.0,98,0.19,,---,0.35,VWS V14.01,2013-06-06 18:15:00,
2013-06-06 14:19:00,62.3,62.0,29.94,ESE,115,0.0,1.0,99,0.10,,---,0.41,VWS V14.01,2013-06-06 18:19:00,
2013-06-06 14:20:00,61.2,60.6,29.96,North,9,2.0,8.0,98,0.21,,---,0.37,VWS V14.01,2013-06-06 18:20:00,
2013-06-06 14:24:00,62.5,62.2,29.94,East,80,1.0,4.0,99,0.08,,---,0.41,VWS V14.01,2013-06-06 18:24:00,
2013-06-06 14:25:00,61.2,60.6,29.96,North,9,0.0,3.0,98,0.23,,---,0.39,VWS V14.01,2013-06-06 18:25:00,
2013-06-06 14:29:00,62.5,62.2,29.94,North,355,2.0,4.0,99,0.06,,---,0.41,VWS V14.01,2013-06-06 18:29:00,
2013-06-06 14:30:00,61.2,60.6,29.96,NNE,24,0.0,1.0,98,0.23,,---,0.40,VWS V14.01,2013-06-06 18:30:00,
2013-06-06 14:34:00,62.5,62.2,29.94,East,98,2.0,3.0,99,0.04,,---,0.41,VWS V14.01,2013-06-06 18:34:00,
2013-06-06 14:35:00,61.4,60.8,29.96,NW,318,0.0,6.0,98,0.22,,---,0.41,VWS V14.01,2013-06-06 18:35:00,
2013-06-06 14:39:00,62.6,62.3,29.94,NNE,30,2.0,5.0,99,0.02,,---,0.41,VWS V14.01,2013-06-06 18:39:00,
2013-06-06 14:40:00,61.5,61.2,29.96,West,281,2.0,2.0,99,0.21,,---,0.41,VWS V14.01,2013-06-06 18:40:00,
2013-06-06 14:44:00,62.8,62.5,29.92,East,97,4.0,6.0,99,0.01,,---,0.41,VWS V14.01,2013-06-06 18:44:00,
2013-06-06 14:45:00,61.5,61.2,29.94,NW,320,0.0,6.0,99,0.20,,---,0.41,VWS V14.01,2013-06-06 18:45:00,
2013-06-06 14:49:00,63.0,62.7,29.92,NNE,13,3.0,4.0,99,0.00,,---,0.41,VWS V14.01,2013-06-06 18:49:00,
2013-06-06 14:50:00,61.7,61.4,29.94,SSE,163,0.0,4.0,99,0.18,,---,0.41,VWS V14.01,2013-06-06 18:50:00,
2013-06-06 14:54:00,63.0,62.7,29.92,NNE,20,1.0,3.0,99,0.00,,---,0.41,VWS V14.01,2013-06-06 18:54:00,
2013-06-06 14:55:00,61.8,61.5,29.94,SSE,162,0.0,1.0,99,0.14,,---,0.41,VWS V14.01,2013-06-06 18:55:00,
2013-06-06 14:59:00,63.1,62.8,29.92,North,11,4.0,6.0,99,0.00,,---,0.41,VWS V14.01,2013-06-06 18:59:00,
2013-06-06 15:00:00,62.2,61.9,29.94,NNE,17,1.0,2.0,99,0.13,,---,0.41,VWS V14.01,2013-06-06 19:00:00,
2013-06-06 15:04:00,63.1,62.8,29.92,North,9,5.0,6.0,99,0.00,,---,0.41,VWS V14.01,2013-06-06 19:04:00,
2013-06-06 15:05:00,62.3,62.0,29.94,ESE,115,0.0,3.0,99,0.12,,---,0.41,VWS V14.01,2013-06-06 19:05:00,
2013-06-06 15:09:00,63.3,63.0,29.92,NNE,19,5.0,6.0,99,0.00,,---,0.41,VWS V14.01,2013-06-06 19:09:00,
2013-06-06 15:10:00,62.5,62.2,29.94,ESE,115,2.0,3.0,99,0.10,,---,0.41,VWS V14.01,2013-06-06 19:10:00,
2013-06-06 15:14:00,63.6,63.3,29.91,NNE,21,3.0,7.0,99,0.00,,---,0.41,VWS V14.01,2013-06-06 19:14:00,
2013-06-06 15:15:00,62.5,62.2,29.94,NNE,22,2.0,4.0,99,0.08,,---,0.41,VWS V14.01,2013-06-06 19:15:00,
2013-06-06 15:19:00,63.6,63.0,29.91,NNW,342,1.0,4.0,98,0.00,,---,0.41,VWS V14.01,2013-06-06 19:19:00,
2013-06-06 15:20:00,62.5,62.2,29.94,East,98,1.0,4.0,99,0.06,,---,0.41,VWS V14.01,2013-06-06 19:20:00,
2013-06-06 15:24:00,63.8,63.5,29.91,North,355,2.0,5.0,99,0.00,,---,0.41,VWS V14.01,2013-06-06 19:24:00,
2013-06-06 15:25:00,62.6,62.3,29.94,NNE,16,3.0,5.0,99,0.04,,---,0.41,VWS V14.01,2013-06-06 19:25:00,
2013-06-06 15:29:00,64.1,63.5,29.91,NE,52,5.0,5.0,98,0.00,,---,0.41,VWS V14.01,2013-06-06 19:29:00,
2013-06-06 15:30:00,62.8,62.5,29.92,NE,38,2.0,5.0,99,0.02,,---,0.41,VWS V14.01,2013-06-06 19:30:00,
2013-06-06 15:34:00,64.1,63.5,29.91,NNE,31,5.0,5.0,98,0.00,,---,0.41,VWS V14.01,2013-06-06 19:34:00,
2013-06-06 15:35:00,63.0,62.7,29.92,North,9,3.0,6.0,99,0.01,,---,0.41,VWS V14.01,2013-06-06 19:35:00,
2013-06-06 15:39:00,64.3,63.7,29.91,ENE,70,4.0,4.0,98,0.00,,---,0.41,VWS V14.01,2013-06-06 19:39:00,
2013-06-06 15:40:00,62.8,62.5,29.92,NNE,24,3.0,4.0,99,0.00,,---,0.41,VWS V14.01,2013-06-06 19:40:00,
2013-06-06 15:44:00,64.3,63.7,29.90,North,350,6.0,6.0,98,0.00,,---,0.41,VWS V14.01,2013-06-06 19:44:00,
2013-06-06 15:45:00,63.1,62.8,29.92,NNE,21,5.0,5.0,99,0.00,,---,0.41,VWS V14.01,2013-06-06 19:45:00,
2013-06-06 15:49:00,64.3,63.7,29.90,NNE,25,3.0,8.0,98,0.00,,---,0.41,VWS V14.01,2013-06-06 19:49:00,
2013-06-06 15:50:00,63.1,62.8,29.92,North,5,4.0,6.0,99,0.00,,---,0.41,VWS V14.01,2013-06-06 19:50:00,
2013-06-06 15:54:00,64.3,63.7,29.90,NE,41,2.0,5.0,98,0.00,,---,0.41,VWS V14.01,2013-06-06 19:54:00,
2013-06-06 15:55:00,63.3,63.0,29.92,NNE,28,4.0,6.0,99,0.00,,---,0.41,VWS V14.01,2013-06-06 19:55:00,
2013-06-06 15:59:00,64.3,63.7,29.89,North,360,4.0,5.0,98,0.00,,---,0.41,VWS V14.01,2013-06-06 19:59:00,
2013-06-06 16:00:00,63.6,63.3,29.91,NE,47,6.0,7.0,99,0.00,,---,0.41,VWS V14.01,2013-06-06 20:00:00,
2013-06-06 16:04:00,64.3,63.7,29.89,North,350,0.0,3.0,98,0.00,,---,0.41,VWS V14.01,2013-06-06 20:04:00,
2013-06-06 16:05:00,63.6,63.0,29.91,NNE,15,3.0,7.0,98,0.00,,---,0.41,VWS V14.01,2013-06-06 20:05:00,
2013-06-06 16:09:00,64.4,63.8,29.89,NE,45,3.0,7.0,98,0.00,,---,0.41,VWS V14.01,2013-06-06 20:09:00,
2013-06-06 16:10:00,63.8,63.5,29.91,North,10,2.0,5.0,99,0.00,,---,0.41,VWS V14.01,2013-06-06 20:10:00,
2013-06-06 16:14:00,64.4,63.8,29.89,NE,38,1.0,2.0,98,0.00,,---,0.41,VWS V14.01,2013-06-06 20:14:00,
2013-06-06 16:15:00,63.9,63.6,29.91,NNE,13,0.0,5.0,99,0.00,,---,0.41,VWS V14.01,2013-06-06 20:15:00,
2013-06-06 16:19:00,64.6,64.0,29.89,ENE,74,0.0,4.0,98,0.01,,---,0.42,VWS V14.01,2013-06-06 20:19:00,
2013-06-06 16:20:00,64.1,63.5,29.91,ENE,78,0.0,5.0,98,0.00,,---,0.41,VWS V14.01,2013-06-06 20:20:00,
2013-06-06 16:24:00,64.6,64.0,29.89,ENE,74,2.0,3.0,98,0.01,,---,0.42,VWS V14.01,2013-06-06 20:24:00,
2013-06-06 16:25:00,64.3,63.7,29.91,North,11,2.0,5.0,98,0.00,,---,0.41,VWS V14.01,2013-06-06 20:25:00,
2013-06-06 16:29:00,64.7,64.1,29.89,ENE,74,0.0,2.0,98,0.01,,---,0.42,VWS V14.01,2013-06-06 20:29:00,
2013-06-06 16:30:00,64.3,63.7,29.90,ENE,70,1.0,4.0,98,0.00,,---,0.41,VWS V14.01,2013-06-06 20:30:00,
2013-06-06 16:34:00,64.7,64.1,29.89,SW,232,3.0,6.0,98,0.02,,---,0.43,VWS V14.01,2013-06-06 20:34:00,
2013-06-06 16:35:00,64.3,63.7,29.90,NNE,31,6.0,6.0,98,0.00,,---,0.41,VWS V14.01,2013-06-06 20:35:00,
2013-06-06 16:39:00,64.6,64.0,29.89,SW,234,3.0,3.0,98,0.04,,---,0.45,VWS V14.01,2013-06-06 20:39:00,
2013-06-06 16:40:00,64.3,63.7,29.90,NE,37,5.0,8.0,98,0.00,,---,0.41,VWS V14.01,2013-06-06 20:40:00,
2013-06-06 16:44:00,64.6,64.0,29.90,WSW,242,2.0,4.0,98,0.06,,---,0.47,VWS V14.01,2013-06-06 20:44:00,
2013-06-06 16:45:00,64.4,63.8,29.89,North,355,5.0,6.0,98,0.00,,---,0.41,VWS V14.01,2013-06-06 20:45:00,
2013-06-06 16:48:00,64.6,64.0,29.90,SE,142,2.0,3.0,98,0.08,,---,0.49,VWS V14.01,2013-06-06 20:48:00,
2013-06-06 16:50:00,64.3,63.7,29.89,NNW,348,0.0,7.0,98,0.00,,---,0.41,VWS V14.01,2013-06-06 20:50:00,
2013-06-06 16:53:00,64.6,64.0,29.90,SE,142,0.0,0.0,98,0.11,,---,0.52,VWS V14.01,2013-06-06 20:53:00,
2013-06-06 16:55:00,64.4,63.8,29.89,NNE,22,7.0,7.0,98,0.00,,---,0.41,VWS V14.01,2013-06-06 20:55:00,
2013-06-06 16:58:00,64.6,64.0,29.89,SE,142,0.0,0.0,98,0.12,,---,0.53,VWS V14.01,2013-06-06 20:58:00,
2013-06-06 17:00:00,64.4,63.8,29.89,NE,38,1.0,7.0,98,0.00,,---,0.41,VWS V14.01,2013-06-06 21:00:00,
2013-06-06 17:03:00,64.6,64.0,29.89,SE,142,0.0,0.0,98,0.14,,---,0.55,VWS V14.01,2013-06-06 21:03:00,
2013-06-06 17:05:00,64.6,64.0,29.89,NE,38,3.0,3.0,98,0.01,,---,0.42,VWS V14.01,2013-06-06 21:05:00,
2013-06-06 17:08:00,64.7,64.1,29.89,SE,142,0.0,0.0,98,0.16,,---,0.57,VWS V14.01,2013-06-06 21:08:00,
2013-06-06 17:10:00,64.6,64.0,29.89,ENE,74,0.0,4.0,98,0.01,,---,0.42,VWS V14.01,2013-06-06 21:10:00,
2013-06-06 17:13:00,64.7,64.4,29.89,SE,142,0.0,2.0,99,0.19,,---,0.60,VWS V14.01,2013-06-06 21:13:00,
2013-06-06 17:15:00,64.6,64.0,29.89,ENE,74,2.0,3.0,98,0.01,,---,0.42,VWS V14.01,2013-06-06 21:15:00,
2013-06-06 17:18:00,64.9,64.6,29.89,SE,141,1.0,2.0,99,0.20,,---,0.62,VWS V14.01,2013-06-06 21:18:00,
2013-06-06 17:20:00,64.7,64.1,29.89,SSW,198,5.0,5.0,98,0.02,,---,0.43,VWS V14.01,2013-06-06 21:20:00,
2013-06-06 17:23:00,64.9,64.6,29.89,SSE,151,0.0,2.0,99,0.21,,---,0.63,VWS V14.01,2013-06-06 21:23:00,
2013-06-06 17:25:00,64.7,64.1,29.89,SW,232,2.0,6.0,98,0.04,,---,0.45,VWS V14.01,2013-06-06 21:25:00,
2013-06-06 17:28:00,64.9,64.6,29.89,SSE,151,0.0,0.0,99,0.21,,---,0.63,VWS V14.01,2013-06-06 21:28:00,
2013-06-06 17:30:00,64.6,64.0,29.90,WSW,241,2.0,3.0,98,0.05,,---,0.46,VWS V14.01,2013-06-06 21:30:00,
2013-06-06 17:33:00,64.9,64.6,29.89,SSE,151,0.0,0.0,99,0.22,,---,0.65,VWS V14.01,2013-06-06 21:33:00,
2013-06-06 17:35:00,64.6,64.0,29.90,WSW,242,3.0,4.0,98,0.07,,---,0.48,VWS V14.01,2013-06-06 21:35:00,
2013-06-06 17:38:00,64.9,64.6,29.89,SSE,151,0.0,1.0,99,0.23,,---,0.68,VWS V14.01,2013-06-06 21:38:00,
2013-06-06 17:40:00,64.6,64.0,29.90,SE,142,0.0,3.0,98,0.10,,---,0.51,VWS V14.01,2013-06-06 21:40:00,
2013-06-06 17:43:00,64.9,64.6,29.89,SSE,151,0.0,0.0,99,0.25,,---,0.71,VWS V14.01,2013-06-06 21:43:00,
2013-06-06 17:45:00,64.6,64.0,29.89,SE,142,0.0,1.0,98,0.12,,---,0.53,VWS V14.01,2013-06-06 21:45:00,
2013-06-06 17:48:00,64.9,64.6,29.89,SSE,151,0.0,0.0,99,0.25,,---,0.73,VWS V14.01,2013-06-06 21:48:00,
2013-06-06 17:50:00,64.6,64.0,29.89,SE,142,0.0,0.0,98,0.14,,---,0.55,VWS V14.01,2013-06-06 21:50:00,
2013-06-06 17:53:00,64.9,64.6,29.89,SSE,151,0.0,1.0,99,0.22,,---,0.73,VWS V14.01,2013-06-06 21:53:00,
2013-06-06 17:55:00,64.7,64.1,29.89,SE,142,0.0,0.0,98,0.16,,---,0.57,VWS V14.01,2013-06-06 21:55:00,
2013-06-06 17:58:00,64.9,64.6,29.89,SSE,150,3.0,3.0,99,0.20,,---,0.73,VWS V14.01,2013-06-06 21:58:00,
2013-06-06 18:00:00,64.7,64.4,29.89,SE,142,0.0,2.0,99,0.19,,---,0.60,VWS V14.01,2013-06-06 22:00:00,
2013-06-06 18:03:00,64.7,64.4,29.89,SSE,150,3.0,3.0,99,0.18,,---,0.73,VWS V14.01,2013-06-06 22:03:00,
2013-06-06 18:05:00,64.9,64.6,29.89,SE,142,2.0,3.0,99,0.20,,---,0.61,VWS V14.01,2013-06-06 22:05:00,
2013-06-06 18:08:00,64.6,64.3,29.89,SSE,150,0.0,3.0,99,0.18,,---,0.75,VWS V14.01,2013-06-06 22:08:00,
2013-06-06 18:10:00,64.9,64.6,29.89,SE,143,2.0,2.0,99,0.20,,---,0.62,VWS V14.01,2013-06-06 22:10:00,
2013-06-06 18:13:00,64.4,64.1,29.88,East,94,3.0,3.0,99,0.17,,---,0.77,VWS V14.01,2013-06-06 22:13:00,
2013-06-06 18:15:00,64.9,64.6,29.89,SSE,151,0.0,2.0,99,0.21,,---,0.63,VWS V14.01,2013-06-06 22:15:00,
2013-06-06 18:18:00,64.4,64.1,29.88,East,94,0.0,1.0,99,0.19,,---,0.80,VWS V14.01,2013-06-06 22:18:00,
2013-06-06 18:20:00,64.9,64.6,29.89,SSE,151,0.0,1.0,99,0.23,,---,0.65,VWS V14.01,2013-06-06 22:20:00,
2013-06-06 18:23:00,64.4,64.1,29.88,East,94,0.0,1.0,99,0.21,,---,0.83,VWS V14.01,2013-06-06 22:23:00,
2013-06-06 18:25:00,64.9,64.6,29.89,SSE,151,0.0,1.0,99,0.24,,---,0.67,VWS V14.01,2013-06-06 22:25:00,
2013-06-06 18:30:00,64.9,64.6,29.89,SSE,151,0.0,1.0,99,0.25,,---,0.70,VWS V14.01,2013-06-06 22:30:00,
2013-06-06 18:31:00,64.4,64.1,29.88,East,94,0.0,0.0,99,0.00,,---,0.86,VWS V14.01,2013-06-06 22:31:00,
2013-06-06 18:35:00,64.9,64.6,29.89,SSE,151,0.0,0.0,99,0.27,,---,0.73,VWS V14.01,2013-06-06 22:35:00,
2013-06-06 18:36:00,64.4,64.1,29.88,East,94,3.0,3.0,99,0.21,,---,0.86,VWS V14.01,2013-06-06 22:36:00,
2013-06-06 18:40:00,64.9,64.6,29.89,SSE,151,0.0,1.0,99,0.25,,---,0.73,VWS V14.01,2013-06-06 22:40:00,
2013-06-06 18:41:00,64.4,64.1,29.88,ENE,77,0.0,4.0,99,0.22,,---,0.89,VWS V14.01,2013-06-06 22:41:00,
2013-06-06 18:45:00,64.9,64.6,29.89,SSE,151,0.0,2.0,99,0.22,,---,0.73,VWS V14.01,2013-06-06 22:45:00,
2013-06-06 18:46:00,64.6,64.3,29.87,North,5,3.0,6.0,99,0.22,,---,0.92,VWS V14.01,2013-06-06 22:46:00,
2013-06-06 18:50:00,64.7,64.4,29.89,SSE,150,3.0,4.0,99,0.20,,---,0.73,VWS V14.01,2013-06-06 22:50:00,
2013-06-06 18:51:00,64.6,64.6,29.87,ENE,58,1.0,1.0,100,0.24,,---,0.94,VWS V14.01,2013-06-06 22:51:00,
2013-06-06 18:55:00,64.6,64.3,29.89,SSE,150,2.0,4.0,99,0.19,,---,0.74,VWS V14.01,2013-06-06 22:55:00,
2013-06-06 18:56:00,64.6,64.6,29.87,North,355,3.0,4.0,100,0.21,,---,0.94,VWS V14.01,2013-06-06 22:56:00,
2013-06-06 19:00:00,64.4,64.1,29.88,SSE,150,1.0,3.0,99,0.20,,---,0.77,VWS V14.01,2013-06-06 23:00:00,
2013-06-06 19:01:00,64.6,64.3,29.87,North,5,2.0,6.0,99,0.21,,---,0.94,VWS V14.01,2013-06-06 23:01:00,
2013-06-06 19:05:00,64.4,64.1,29.88,East,94,0.0,3.0,99,0.19,,---,0.79,VWS V14.01,2013-06-06 23:05:00,
2013-06-06 19:06:00,64.6,64.6,29.87,NE,37,3.0,5.0,100,0.22,,---,0.95,VWS V14.01,2013-06-06 23:06:00,
2013-06-06 19:10:00,64.4,64.1,29.88,East,94,0.0,1.0,99,0.21,,---,0.82,VWS V14.01,2013-06-06 23:10:00,
2013-06-06 19:11:00,64.6,64.6,29.87,NNE,28,3.0,5.0,100,0.21,,---,0.95,VWS V14.01,2013-06-06 23:11:00,
2013-06-06 19:15:00,64.4,64.1,29.88,East,94,0.0,1.0,99,0.23,,---,0.85,VWS V14.01,2013-06-06 23:15:00,
2013-06-06 19:16:00,64.6,64.6,29.86,North,10,2.0,5.0,100,0.18,,---,0.95,VWS V14.01,2013-06-06 23:16:00,
2013-06-06 19:20:00,64.4,64.1,29.88,East,94,2.0,3.0,99,0.23,,---,0.86,VWS V14.01,2013-06-06 23:20:00,
2013-06-06 19:21:00,64.6,64.6,29.86,North,10,2.0,4.0,100,0.17,,---,0.96,VWS V14.01,2013-06-06 23:21:00,
2013-06-06 19:25:00,64.4,64.1,29.88,East,94,1.0,3.0,99,0.22,,---,0.87,VWS V14.01,2013-06-06 23:25:00,
2013-06-06 19:26:00,64.6,64.6,29.86,North,10,3.0,5.0,100,0.14,,---,0.96,VWS V14.01,2013-06-06 23:26:00,
2013-06-06 19:30:00,64.6,64.3,29.87,ENE,77,2.0,4.0,99,0.23,,---,0.90,VWS V14.01,2013-06-06 23:30:00,
2013-06-06 19:31:00,64.6,64.6,29.86,North,350,0.0,4.0,100,0.11,,---,0.96,VWS V14.01,2013-06-06 23:31:00,
2013-06-06 19:36:00,64.6,64.6,29.86,North,350,0.0,2.0,100,0.12,,---,0.98,VWS V14.01,2013-06-06 23:36:00,
2013-06-06 19:40:00,64.6,64.6,29.87,NE,36,4.0,4.0,100,0.24,,---,0.94,VWS V14.01,2013-06-06 23:40:00,
2013-06-06 19:41:00,64.6,64.6,29.86,North,350,1.0,3.0,100,0.13,,---,1.00,VWS V14.01,2013-06-06 23:41:00,
2013-06-06 19:45:00,64.4,64.4,29.86,North,355,3.0,5.0,100,0.11,,---,1.01,VWS V14.01,2013-06-06 23:45:00,
2013-06-06 19:50:00,64.4,64.4,29.86,North,355,2.0,4.0,100,0.08,,---,1.02,VWS V14.01,2013-06-06 23:50:00,
2013-06-06 19:55:00,64.4,64.4,29.86,North,355,0.0,2.0,100,0.09,,---,1.03,VWS V14.01,2013-06-06 23:55:00,
2013-06-06 20:00:00,64.4,64.4,29.86,North,355,3.0,3.0,100,0.10,,---,1.04,VWS V14.01,2013-06-07 00:00:00,
2013-06-06 20:05:00,64.4,64.4,29.86,North,5,4.0,5.0,100,0.10,,---,1.04,VWS V14.01,2013-06-07 00:05:00,
2013-06-06 20:10:00,64.4,64.4,29.86,NNE,26,2.0,5.0,100,0.09,,---,1.04,VWS V14.01,2013-06-07 00:10:00,
2013-06-06 20:15:00,64.3,64.3,29.86,NE,42,3.0,5.0,100,0.10,,---,1.05,VWS V14.01,2013-06-07 00:15:00,
2013-06-06 20:20:00,64.3,64.3,29.86,ENE,64,1.0,4.0,100,0.10,,---,1.06,VWS V14.01,2013-06-07 00:20:00,
2013-06-06 20:25:00,64.3,64.3,29.86,ENE,64,1.0,3.0,100,0.10,,---,1.06,VWS V14.01,2013-06-07 00:25:00,
2013-06-06 20:30:00,64.3,64.3,29.86,ENE,64,1.0,2.0,100,0.10,,---,1.06,VWS V14.01,2013-06-07 00:30:00,
2013-06-06 20:35:00,64.3,64.3,29.86,NE,34,3.0,4.0,100,0.10,,---,1.06,VWS V14.01,2013-06-07 00:35:00,
2013-06-06 20:40:00,64.3,64.3,29.86,NE,35,2.0,3.0,100,0.09,,---,1.07,VWS V14.01,2013-06-07 00:40:00,
2013-06-06 20:45:00,64.3,64.3,29.85,NNE,24,4.0,7.0,100,0.06,,---,1.07,VWS V14.01,2013-06-07 00:45:00,
2013-06-06 20:50:00,64.3,64.3,29.85,NE,41,4.0,5.0,100,0.06,,---,1.07,VWS V14.01,2013-06-07 00:50:00,
2013-06-06 20:55:00,64.3,64.3,29.85,NE,56,2.0,6.0,100,0.06,,---,1.08,VWS V14.01,2013-06-07 00:55:00,
2013-06-06 21:00:00,64.3,64.3,29.86,NE,46,3.0,6.0,100,0.05,,---,1.08,VWS V14.01,2013-06-07 01:00:00,
2013-06-06 21:05:00,64.3,64.3,29.86,NE,47,1.0,6.0,100,0.05,,---,1.09,VWS V14.01,2013-06-07 01:05:00,
2013-06-06 21:10:00,64.3,64.3,29.86,ENE,75,4.0,5.0,100,0.06,,---,1.10,VWS V14.01,2013-06-07 01:10:00,
2013-06-06 21:15:00,64.3,64.3,29.86,NE,39,4.0,6.0,100,0.08,,---,1.12,VWS V14.01,2013-06-07 01:15:00,
2013-06-06 21:20:00,64.3,64.3,29.86,NE,55,5.0,5.0,100,0.08,,---,1.13,VWS V14.01,2013-06-07 01:20:00,
2013-06-06 21:25:00,64.1,64.1,29.86,NE,53,9.0,10.0,100,0.08,,---,1.14,VWS V14.01,2013-06-07 01:25:00,
2013-06-06 21:30:00,64.1,64.1,29.86,ESE,107,5.0,10.0,100,0.12,,---,1.18,VWS V14.01,2013-06-07 01:30:00,
2013-06-06 21:35:00,63.9,63.9,29.86,East,97,4.0,12.0,100,0.14,,---,1.20,VWS V14.01,2013-06-07 01:35:00,
2013-06-06 21:40:00,63.9,63.9,29.86,ENE,68,3.0,5.0,100,0.16,,---,1.23,VWS V14.01,2013-06-07 01:40:00,
2013-06-06 21:45:00,63.9,63.9,29.86,ENE,68,3.0,4.0,100,0.17,,---,1.24,VWS V14.01,2013-06-07 01:45:00,
2013-06-06 21:50:00,63.8,63.8,29.86,NNE,14,7.0,10.0,100,0.19,,---,1.26,VWS V14.01,2013-06-07 01:50:00,
2013-06-06 21:55:00,63.6,63.6,29.86,NE,39,4.0,10.0,100,0.19,,---,1.27,VWS V14.01,2013-06-07 01:55:00,
2013-06-06 22:00:00,63.6,63.6,29.86,ENE,72,3.0,10.0,100,0.20,,---,1.28,VWS V14.01,2013-06-07 02:00:00,
2013-06-06 22:05:00,63.4,63.4,29.86,ENE,69,5.0,7.0,100,0.20,,---,1.28,VWS V14.01,2013-06-07 02:05:00,
2013-06-06 22:10:00,63.4,63.4,29.86,ENE,61,4.0,10.0,100,0.19,,---,1.28,VWS V14.01,2013-06-07 02:10:00,
2013-06-06 22:15:00,63.3,63.3,29.86,NE,53,4.0,6.0,100,0.18,,---,1.28,VWS V14.01,2013-06-07 02:15:00,
2013-06-06 22:20:00,63.3,63.3,29.86,NNE,28,3.0,6.0,100,0.16,,---,1.28,VWS V14.01,2013-06-07 02:20:00,
2013-06-06 22:25:00,63.1,63.1,29.86,East,81,0.0,6.0,100,0.14,,---,1.28,VWS V14.01,2013-06-07 02:25:00,
2013-06-06 22:30:00,63.1,63.1,29.86,ENE,65,0.0,5.0,100,0.13,,---,1.28,VWS V14.01,2013-06-07 02:30:00,
2013-06-06 22:35:00,63.1,63.1,29.86,ENE,65,0.0,3.0,100,0.09,,---,1.28,VWS V14.01,2013-06-07 02:35:00,
2013-06-06 22:40:00,63.1,63.1,29.86,NNE,13,0.0,6.0,100,0.06,,---,1.28,VWS V14.01,2013-06-07 02:40:00,
2013-06-06 22:45:00,63.1,63.1,29.86,NE,41,0.0,4.0,100,0.04,,---,1.28,VWS V14.01,2013-06-07 02:45:00,
2013-06-06 22:50:00,63.1,63.1,29.86,ENE,61,0.0,3.0,100,0.03,,---,1.28,VWS V14.01,2013-06-07 02:50:00,
2013-06-06 22:55:00,63.1,63.1,29.86,ENE,61,2.0,3.0,100,0.02,,---,1.28,VWS V14.01,2013-06-07 02:55:00,
2013-06-06 23:00:00,63.1,63.1,29.85,ENE,61,4.0,4.0,100,0.00,,---,1.28,VWS V14.01,2013-06-07 03:00:00,
2013-06-06 23:05:00,63.1,63.1,29.85,NE,44,1.0,3.0,100,0.00,,---,1.28,VWS V14.01,2013-06-07 03:05:00,
2013-06-06 23:10:00,63.1,63.1,29.85,NE,45,0.0,2.0,100,0.00,,---,1.28,VWS V14.01,2013-06-07 03:10:00,
2013-06-06 23:15:00,63.1,63.1,29.85,NNE,15,2.0,5.0,100,0.00,,---,1.28,VWS V14.01,2013-06-07 03:15:00,
2013-06-06 23:20:00,63.1,63.1,29.85,NNE,19,0.0,3.0,100,0.00,,---,1.28,VWS V14.01,2013-06-07 03:20:00,
2013-06-06 23:25:00,63.1,63.1,29.85,NNE,31,0.0,3.0,100,0.00,,---,1.28,VWS V14.01,2013-06-07 03:25:00,
2013-06-06 23:30:00,63.1,63.1,29.84,NNE,31,0.0,1.0,100,0.00,,---,1.28,VWS V14.01,2013-06-07 03:30:00,
2013-06-06 23:35:00,63.1,63.1,29.84,NE,35,0.0,2.0,100,0.00,,---,1.28,VWS V14.01,2013-06-07 03:35:00,
2013-06-06 23:40:00,63.1,63.1,29.84,NE,35,1.0,2.0,100,0.00,,---,1.28,VWS V14.01,2013-06-07 03:40:00,
2013-06-06 23:45:00,63.1,63.1,29.84,NE,35,0.0,0.0,100,0.00,,---,1.28,VWS V14.01,2013-06-07 03:45:00,
2013-06-06 23:50:00,63.1,63.1,29.84,NE,35,0.0,1.0,100,0.00,,---,1.28,VWS V14.01,2013-06-07 03:50:00,
2013-06-06 23:55:00,63.1,63.1,29.84,NE,35,0.0,1.0,100,0.00,,---,1.28,VWS V14.01,2013-06-07 03:55:00,